sensor_id;sensor_type;location;lat;lon;timestamp;P1;durP1;ratioP1;P2;durP2;ratioP2
10029;SDS011;5055;52.054;8.524;2023-02-28T00:01:47;0.40;;;0.40;;
10029;SDS011;5055;52.054;8.524;2023-02-28T00:04:17;0.87;;;0.87;;
10029;SDS011;5055;52.054;8.524;2023-02-28T00:06:46;0.40;;;0.40;;
10029;SDS011;5055;52.054;8.524;2023-02-28T00:09:14;1.07;;;1.07;;
10029;SDS011;5055;52.054;8.524;2023-02-28T00:11:43;1.00;;;1.00;;
10029;SDS011;5055;52.054;8.524;2023-02-28T00:14:12;0.73;;;0.73;;
10029;SDS011;5055;52.054;8.524;2023-02-28T00:16:40;0.70;;;0.70;;
10029;SDS011;5055;52.054;8.524;2023-02-28T00:19:09;0.70;;;0.70;;
10029;SDS011;5055;52.054;8.524;2023-02-28T00:21:41;0.70;;;0.70;;
10029;SDS011;5055;52.054;8.524;2023-02-28T00:24:10;0.70;;;0.70;;
10029;SDS011;5055;52.054;8.524;2023-02-28T00:26:39;0.77;;;0.77;;
10029;SDS011;5055;52.054;8.524;2023-02-28T00:29:07;1.03;;;1.03;;
10029;SDS011;5055;52.054;8.524;2023-02-28T00:31:36;0.70;;;0.70;;
10029;SDS011;5055;52.054;8.524;2023-02-28T00:34:04;0.60;;;0.60;;
10029;SDS011;5055;52.054;8.524;2023-02-28T00:36:33;0.77;;;0.77;;
10029;SDS011;5055;52.054;8.524;2023-02-28T00:39:03;0.77;;;0.77;;
10029;SDS011;5055;52.054;8.524;2023-02-28T00:41:31;1.10;;;1.10;;
10029;SDS011;5055;52.054;8.524;2023-02-28T00:44:00;0.83;;;0.83;;
10029;SDS011;5055;52.054;8.524;2023-02-28T00:46:28;0.87;;;0.87;;
10029;SDS011;5055;52.054;8.524;2023-02-28T00:48:57;0.80;;;0.80;;
10029;SDS011;5055;52.054;8.524;2023-02-28T00:51:26;1.10;;;1.10;;
10029;SDS011;5055;52.054;8.524;2023-02-28T00:53:56;1.07;;;1.07;;
10029;SDS011;5055;52.054;8.524;2023-02-28T00:56:25;1.03;;;1.03;;
10029;SDS011;5055;52.054;8.524;2023-02-28T00:58:54;0.80;;;0.80;;
10029;SDS011;5055;52.054;8.524;2023-02-28T01:01:22;0.80;;;0.80;;
10029;SDS011;5055;52.054;8.524;2023-02-28T01:03:51;0.97;;;0.97;;
10029;SDS011;5055;52.054;8.524;2023-02-28T01:06:19;0.90;;;0.90;;
10029;SDS011;5055;52.054;8.524;2023-02-28T01:08:48;0.97;;;0.97;;
10029;SDS011;5055;52.054;8.524;2023-02-28T01:11:17;1.00;;;1.00;;
10029;SDS011;5055;52.054;8.524;2023-02-28T01:13:47;0.87;;;0.87;;
10029;SDS011;5055;52.054;8.524;2023-02-28T01:16:16;1.20;;;1.20;;
10029;SDS011;5055;52.054;8.524;2023-02-28T01:18:45;1.20;;;1.20;;
10029;SDS011;5055;52.054;8.524;2023-02-28T01:21:14;0.77;;;0.77;;
10029;SDS011;5055;52.054;8.524;2023-02-28T01:23:43;0.80;;;0.80;;
10029;SDS011;5055;52.054;8.524;2023-02-28T01:26:12;1.10;;;1.10;;
10029;SDS011;5055;52.054;8.524;2023-02-28T01:28:47;1.00;;;1.00;;
10029;SDS011;5055;52.054;8.524;2023-02-28T01:31:17;0.60;;;0.60;;
10029;SDS011;5055;52.054;8.524;2023-02-28T01:33:46;0.83;;;0.83;;
10029;SDS011;5055;52.054;8.524;2023-02-28T01:36:16;1.00;;;1.00;;
10029;SDS011;5055;52.054;8.524;2023-02-28T01:38:46;0.90;;;0.90;;
10029;SDS011;5055;52.054;8.524;2023-02-28T01:41:16;0.70;;;0.70;;
10029;SDS011;5055;52.054;8.524;2023-02-28T01:43:54;0.70;;;0.70;;
10029;SDS011;5055;52.054;8.524;2023-02-28T01:46:29;0.60;;;0.60;;
10029;SDS011;5055;52.054;8.524;2023-02-28T01:49:00;0.80;;;0.80;;
10029;SDS011;5055;52.054;8.524;2023-02-28T01:51:34;0.60;;;0.60;;
10029;SDS011;5055;52.054;8.524;2023-02-28T01:54:07;0.60;;;0.60;;
10029;SDS011;5055;52.054;8.524;2023-02-28T01:56:41;0.50;;;0.50;;
10029;SDS011;5055;52.054;8.524;2023-02-28T01:59:17;0.60;;;0.60;;
10029;SDS011;5055;52.054;8.524;2023-02-28T02:01:51;0.60;;;0.60;;
10029;SDS011;5055;52.054;8.524;2023-02-28T02:04:21;0.80;;;0.80;;
10029;SDS011;5055;52.054;8.524;2023-02-28T02:06:52;0.70;;;0.70;;
10029;SDS011;5055;52.054;8.524;2023-02-28T02:09:21;1.73;;;1.73;;
10029;SDS011;5055;52.054;8.524;2023-02-28T02:11:49;0.40;;;0.40;;
10029;SDS011;5055;52.054;8.524;2023-02-28T02:14:38;0.80;;;0.80;;
10029;SDS011;5055;52.054;8.524;2023-02-28T02:17:17;0.60;;;0.60;;
10029;SDS011;5055;52.054;8.524;2023-02-28T02:23:02;0.70;;;0.70;;
10029;SDS011;5055;52.054;8.524;2023-02-28T02:25:50;0.60;;;0.60;;
10029;SDS011;5055;52.054;8.524;2023-02-28T02:28:46;0.67;;;0.67;;
10029;SDS011;5055;52.054;8.524;2023-02-28T02:31:48;0.63;;;0.63;;
10029;SDS011;5055;52.054;8.524;2023-02-28T02:34:43;1.10;;;1.10;;
10029;SDS011;5055;52.054;8.524;2023-02-28T02:37:23;0.60;;;0.60;;
10029;SDS011;5055;52.054;8.524;2023-02-28T02:39:59;0.60;;;0.60;;
10029;SDS011;5055;52.054;8.524;2023-02-28T02:42:33;1.23;;;1.23;;
10029;SDS011;5055;52.054;8.524;2023-02-28T02:45:07;0.57;;;0.57;;
10029;SDS011;5055;52.054;8.524;2023-02-28T02:47:39;0.40;;;0.40;;
10029;SDS011;5055;52.054;8.524;2023-02-28T02:50:12;0.53;;;0.53;;
10029;SDS011;5055;52.054;8.524;2023-02-28T02:52:46;0.80;;;0.80;;
10029;SDS011;5055;52.054;8.524;2023-02-28T02:55:19;0.70;;;0.70;;
10029;SDS011;5055;52.054;8.524;2023-02-28T02:57:50;0.60;;;0.60;;
10029;SDS011;5055;52.054;8.524;2023-02-28T03:00:23;0.50;;;0.50;;
10029;SDS011;5055;52.054;8.524;2023-02-28T03:02:58;0.63;;;0.63;;
10029;SDS011;5055;52.054;8.524;2023-02-28T03:05:31;0.60;;;0.60;;
10029;SDS011;5055;52.054;8.524;2023-02-28T03:08:07;0.80;;;0.80;;
10029;SDS011;5055;52.054;8.524;2023-02-28T03:10:36;0.73;;;0.73;;
10029;SDS011;5055;52.054;8.524;2023-02-28T03:13:09;1.13;;;1.13;;
10029;SDS011;5055;52.054;8.524;2023-02-28T03:15:48;0.70;;;0.70;;
10029;SDS011;5055;52.054;8.524;2023-02-28T03:18:32;0.93;;;0.93;;
10029;SDS011;5055;52.054;8.524;2023-02-28T03:21:12;0.80;;;0.80;;
10029;SDS011;5055;52.054;8.524;2023-02-28T03:23:48;1.20;;;1.20;;
10029;SDS011;5055;52.054;8.524;2023-02-28T03:26:26;0.77;;;0.77;;
10029;SDS011;5055;52.054;8.524;2023-02-28T03:29:00;0.80;;;0.80;;
10029;SDS011;5055;52.054;8.524;2023-02-28T03:31:32;0.90;;;0.90;;
10029;SDS011;5055;52.054;8.524;2023-02-28T03:34:05;0.67;;;0.67;;
10029;SDS011;5055;52.054;8.524;2023-02-28T03:36:41;0.60;;;0.60;;
10029;SDS011;5055;52.054;8.524;2023-02-28T03:39:14;1.00;;;1.00;;
10029;SDS011;5055;52.054;8.524;2023-02-28T03:41:47;1.10;;;1.10;;
10029;SDS011;5055;52.054;8.524;2023-02-28T03:44:21;0.90;;;0.90;;
10029;SDS011;5055;52.054;8.524;2023-02-28T03:46:55;0.63;;;0.63;;
10029;SDS011;5055;52.054;8.524;2023-02-28T03:49:29;0.80;;;0.80;;
10029;SDS011;5055;52.054;8.524;2023-02-28T03:52:02;1.03;;;1.03;;
10029;SDS011;5055;52.054;8.524;2023-02-28T03:54:34;0.83;;;0.83;;
10029;SDS011;5055;52.054;8.524;2023-02-28T03:57:08;1.07;;;1.07;;
10029;SDS011;5055;52.054;8.524;2023-02-28T03:59:43;0.77;;;0.77;;
10029;SDS011;5055;52.054;8.524;2023-02-28T04:02:15;1.00;;;1.00;;
10029;SDS011;5055;52.054;8.524;2023-02-28T04:04:45;1.17;;;1.17;;
10029;SDS011;5055;52.054;8.524;2023-02-28T04:07:16;0.53;;;0.53;;
10029;SDS011;5055;52.054;8.524;2023-02-28T04:09:45;0.63;;;0.63;;
10029;SDS011;5055;52.054;8.524;2023-02-28T04:12:13;0.67;;;0.67;;
10029;SDS011;5055;52.054;8.524;2023-02-28T04:14:42;0.70;;;0.70;;
10029;SDS011;5055;52.054;8.524;2023-02-28T04:17:10;0.70;;;0.70;;
10029;SDS011;5055;52.054;8.524;2023-02-28T04:19:39;0.60;;;0.60;;
10029;SDS011;5055;52.054;8.524;2023-02-28T04:22:07;0.97;;;0.97;;
10029;SDS011;5055;52.054;8.524;2023-02-28T04:24:37;1.10;;;1.10;;
10029;SDS011;5055;52.054;8.524;2023-02-28T04:27:08;1.20;;;1.20;;
10029;SDS011;5055;52.054;8.524;2023-02-28T04:29:36;1.00;;;1.00;;
10029;SDS011;5055;52.054;8.524;2023-02-28T04:32:05;1.03;;;1.03;;
10029;SDS011;5055;52.054;8.524;2023-02-28T04:34:33;0.87;;;0.87;;
10029;SDS011;5055;52.054;8.524;2023-02-28T04:37:02;0.93;;;0.93;;
10029;SDS011;5055;52.054;8.524;2023-02-28T04:39:40;0.90;;;0.90;;
10029;SDS011;5055;52.054;8.524;2023-02-28T04:42:09;0.93;;;0.93;;
10029;SDS011;5055;52.054;8.524;2023-02-28T04:44:38;1.07;;;1.07;;
10029;SDS011;5055;52.054;8.524;2023-02-28T04:47:07;0.80;;;0.80;;
10029;SDS011;5055;52.054;8.524;2023-02-28T04:49:35;1.10;;;1.10;;
10029;SDS011;5055;52.054;8.524;2023-02-28T04:52:03;1.00;;;1.00;;
10029;SDS011;5055;52.054;8.524;2023-02-28T04:54:36;1.40;;;1.40;;
10029;SDS011;5055;52.054;8.524;2023-02-28T04:57:07;0.80;;;0.80;;
10029;SDS011;5055;52.054;8.524;2023-02-28T04:59:36;0.80;;;0.80;;
10029;SDS011;5055;52.054;8.524;2023-02-28T05:02:07;1.00;;;1.00;;
10029;SDS011;5055;52.054;8.524;2023-02-28T05:04:36;1.33;;;1.33;;
10029;SDS011;5055;52.054;8.524;2023-02-28T05:07:04;1.00;;;1.00;;
10029;SDS011;5055;52.054;8.524;2023-02-28T05:09:33;1.17;;;1.17;;
10029;SDS011;5055;52.054;8.524;2023-02-28T05:12:01;1.10;;;1.10;;
10029;SDS011;5055;52.054;8.524;2023-02-28T05:14:31;1.50;;;1.50;;
10029;SDS011;5055;52.054;8.524;2023-02-28T05:16:59;1.23;;;1.23;;
10029;SDS011;5055;52.054;8.524;2023-02-28T05:19:28;0.70;;;0.70;;
10029;SDS011;5055;52.054;8.524;2023-02-28T05:21:56;0.67;;;0.67;;
10029;SDS011;5055;52.054;8.524;2023-02-28T05:24:25;1.00;;;1.00;;
10029;SDS011;5055;52.054;8.524;2023-02-28T05:26:54;0.90;;;0.90;;
10029;SDS011;5055;52.054;8.524;2023-02-28T05:29:22;0.80;;;0.80;;
10029;SDS011;5055;52.054;8.524;2023-02-28T05:31:52;0.87;;;0.87;;
10029;SDS011;5055;52.054;8.524;2023-02-28T05:34:21;0.80;;;0.80;;
10029;SDS011;5055;52.054;8.524;2023-02-28T05:36:49;0.60;;;0.60;;
10029;SDS011;5055;52.054;8.524;2023-02-28T05:39:17;0.63;;;0.63;;
10029;SDS011;5055;52.054;8.524;2023-02-28T05:41:46;0.80;;;0.80;;
10029;SDS011;5055;52.054;8.524;2023-02-28T05:44:14;0.50;;;0.50;;
10029;SDS011;5055;52.054;8.524;2023-02-28T05:46:43;1.07;;;1.07;;
10029;SDS011;5055;52.054;8.524;2023-02-28T05:49:13;0.83;;;0.83;;
10029;SDS011;5055;52.054;8.524;2023-02-28T05:51:41;0.60;;;0.60;;
10029;SDS011;5055;52.054;8.524;2023-02-28T05:54:12;0.83;;;0.83;;
10029;SDS011;5055;52.054;8.524;2023-02-28T05:56:41;0.47;;;0.47;;
10029;SDS011;5055;52.054;8.524;2023-02-28T05:59:11;0.60;;;0.60;;
10029;SDS011;5055;52.054;8.524;2023-02-28T06:01:40;0.80;;;0.80;;
10029;SDS011;5055;52.054;8.524;2023-02-28T06:04:16;0.40;;;0.40;;
10029;SDS011;5055;52.054;8.524;2023-02-28T06:06:57;0.77;;;0.77;;
10029;SDS011;5055;52.054;8.524;2023-02-28T06:09:25;1.00;;;1.00;;
10029;SDS011;5055;52.054;8.524;2023-02-28T06:11:54;1.57;;;1.57;;
10029;SDS011;5055;52.054;8.524;2023-02-28T06:14:22;1.07;;;1.07;;
10029;SDS011;5055;52.054;8.524;2023-02-28T06:16:50;1.20;;;1.20;;
10029;SDS011;5055;52.054;8.524;2023-02-28T06:19:21;1.47;;;1.47;;
10029;SDS011;5055;52.054;8.524;2023-02-28T06:21:52;0.70;;;0.70;;
10029;SDS011;5055;52.054;8.524;2023-02-28T06:24:21;1.20;;;1.20;;
10029;SDS011;5055;52.054;8.524;2023-02-28T06:26:51;0.90;;;0.90;;
10029;SDS011;5055;52.054;8.524;2023-02-28T06:29:19;0.67;;;0.67;;
10029;SDS011;5055;52.054;8.524;2023-02-28T06:31:48;1.10;;;1.10;;
10029;SDS011;5055;52.054;8.524;2023-02-28T06:34:16;0.50;;;0.50;;
10029;SDS011;5055;52.054;8.524;2023-02-28T06:36:46;1.40;;;1.40;;
10029;SDS011;5055;52.054;8.524;2023-02-28T06:39:17;1.17;;;1.17;;
10029;SDS011;5055;52.054;8.524;2023-02-28T06:41:47;0.90;;;0.90;;
10029;SDS011;5055;52.054;8.524;2023-02-28T06:44:21;0.93;;;0.93;;
10029;SDS011;5055;52.054;8.524;2023-02-28T06:46:50;0.70;;;0.70;;
10029;SDS011;5055;52.054;8.524;2023-02-28T06:49:19;0.63;;;0.63;;
10029;SDS011;5055;52.054;8.524;2023-02-28T06:51:49;0.60;;;0.60;;
10029;SDS011;5055;52.054;8.524;2023-02-28T06:54:17;1.13;;;1.13;;
10029;SDS011;5055;52.054;8.524;2023-02-28T06:56:46;0.83;;;0.83;;
10029;SDS011;5055;52.054;8.524;2023-02-28T06:59:14;0.80;;;0.80;;
10029;SDS011;5055;52.054;8.524;2023-02-28T07:01:43;0.73;;;0.73;;
10029;SDS011;5055;52.054;8.524;2023-02-28T07:04:11;1.33;;;1.33;;
10029;SDS011;5055;52.054;8.524;2023-02-28T07:06:40;0.83;;;0.83;;
10029;SDS011;5055;52.054;8.524;2023-02-28T07:09:10;1.17;;;1.17;;
10029;SDS011;5055;52.054;8.524;2023-02-28T07:11:40;0.57;;;0.57;;
10029;SDS011;5055;52.054;8.524;2023-02-28T07:14:09;0.80;;;0.80;;
10029;SDS011;5055;52.054;8.524;2023-02-28T07:16:37;1.00;;;1.00;;
10029;SDS011;5055;52.054;8.524;2023-02-28T07:19:05;0.67;;;0.67;;
10029;SDS011;5055;52.054;8.524;2023-02-28T07:21:34;0.50;;;0.50;;
10029;SDS011;5055;52.054;8.524;2023-02-28T07:24:03;0.90;;;0.90;;
10029;SDS011;5055;52.054;8.524;2023-02-28T07:26:33;0.70;;;0.70;;
10029;SDS011;5055;52.054;8.524;2023-02-28T07:29:03;1.07;;;1.07;;
10029;SDS011;5055;52.054;8.524;2023-02-28T07:31:31;0.80;;;0.80;;
10029;SDS011;5055;52.054;8.524;2023-02-28T07:34:00;0.77;;;0.77;;
10029;SDS011;5055;52.054;8.524;2023-02-28T07:36:29;0.40;;;0.40;;
10029;SDS011;5055;52.054;8.524;2023-02-28T07:38:58;1.23;;;1.23;;
10029;SDS011;5055;52.054;8.524;2023-02-28T07:41:27;1.00;;;1.00;;
10029;SDS011;5055;52.054;8.524;2023-02-28T07:44:01;0.60;;;0.60;;
10029;SDS011;5055;52.054;8.524;2023-02-28T07:46:29;0.50;;;0.50;;
10029;SDS011;5055;52.054;8.524;2023-02-28T07:49:02;0.53;;;0.53;;
10029;SDS011;5055;52.054;8.524;2023-02-28T07:51:30;0.40;;;0.40;;
10029;SDS011;5055;52.054;8.524;2023-02-28T07:54:00;0.60;;;0.60;;
10029;SDS011;5055;52.054;8.524;2023-02-28T07:56:28;0.80;;;0.80;;
10029;SDS011;5055;52.054;8.524;2023-02-28T07:58:57;0.40;;;0.40;;
10029;SDS011;5055;52.054;8.524;2023-02-28T08:01:27;0.50;;;0.50;;
10029;SDS011;5055;52.054;8.524;2023-02-28T08:03:55;0.60;;;0.60;;
10029;SDS011;5055;52.054;8.524;2023-02-28T08:06:25;0.70;;;0.70;;
10029;SDS011;5055;52.054;8.524;2023-02-28T08:08:53;0.87;;;0.87;;
10029;SDS011;5055;52.054;8.524;2023-02-28T08:11:22;0.60;;;0.60;;
10029;SDS011;5055;52.054;8.524;2023-02-28T08:13:50;0.50;;;0.50;;
10029;SDS011;5055;52.054;8.524;2023-02-28T08:16:20;0.53;;;0.53;;
10029;SDS011;5055;52.054;8.524;2023-02-28T08:18:51;0.57;;;0.57;;
10029;SDS011;5055;52.054;8.524;2023-02-28T08:21:20;0.50;;;0.50;;
10029;SDS011;5055;52.054;8.524;2023-02-28T08:23:49;0.43;;;0.43;;
10029;SDS011;5055;52.054;8.524;2023-02-28T08:26:19;0.40;;;0.40;;
10029;SDS011;5055;52.054;8.524;2023-02-28T08:28:48;0.50;;;0.50;;
10029;SDS011;5055;52.054;8.524;2023-02-28T08:31:16;0.50;;;0.50;;
10029;SDS011;5055;52.054;8.524;2023-02-28T08:33:45;0.40;;;0.40;;
10029;SDS011;5055;52.054;8.524;2023-02-28T08:36:19;0.50;;;0.50;;
10029;SDS011;5055;52.054;8.524;2023-02-28T08:38:48;0.53;;;0.53;;
10029;SDS011;5055;52.054;8.524;2023-02-28T08:41:16;0.50;;;0.50;;
10029;SDS011;5055;52.054;8.524;2023-02-28T08:43:45;0.80;;;0.80;;
10029;SDS011;5055;52.054;8.524;2023-02-28T08:46:13;0.50;;;0.50;;
10029;SDS011;5055;52.054;8.524;2023-02-28T08:48:42;0.50;;;0.50;;
10029;SDS011;5055;52.054;8.524;2023-02-28T08:51:12;0.53;;;0.53;;
10029;SDS011;5055;52.054;8.524;2023-02-28T08:53:46;0.53;;;0.53;;
10029;SDS011;5055;52.054;8.524;2023-02-28T08:56:16;0.30;;;0.30;;
10029;SDS011;5055;52.054;8.524;2023-02-28T08:58:45;0.50;;;0.50;;
10029;SDS011;5055;52.054;8.524;2023-02-28T09:01:14;0.40;;;0.40;;
10029;SDS011;5055;52.054;8.524;2023-02-28T09:03:44;0.40;;;0.40;;
10029;SDS011;5055;52.054;8.524;2023-02-28T09:06:14;0.37;;;0.37;;
10029;SDS011;5055;52.054;8.524;2023-02-28T09:08:44;0.50;;;0.50;;
10029;SDS011;5055;52.054;8.524;2023-02-28T09:11:14;0.40;;;0.40;;
10029;SDS011;5055;52.054;8.524;2023-02-28T09:13:43;0.40;;;0.40;;
10029;SDS011;5055;52.054;8.524;2023-02-28T09:16:12;0.40;;;0.40;;
10029;SDS011;5055;52.054;8.524;2023-02-28T09:18:43;0.40;;;0.40;;
10029;SDS011;5055;52.054;8.524;2023-02-28T09:21:12;0.43;;;0.43;;
10029;SDS011;5055;52.054;8.524;2023-02-28T09:23:41;0.47;;;0.47;;
10029;SDS011;5055;52.054;8.524;2023-02-28T09:26:14;0.40;;;0.40;;
10029;SDS011;5055;52.054;8.524;2023-02-28T09:28:43;0.30;;;0.30;;
10029;SDS011;5055;52.054;8.524;2023-02-28T09:31:13;0.40;;;0.40;;
10029;SDS011;5055;52.054;8.524;2023-02-28T09:33:42;0.33;;;0.33;;
10029;SDS011;5055;52.054;8.524;2023-02-28T09:36:11;0.30;;;0.30;;
10029;SDS011;5055;52.054;8.524;2023-02-28T09:38:39;0.30;;;0.30;;
10029;SDS011;5055;52.054;8.524;2023-02-28T09:41:11;0.30;;;0.30;;
10029;SDS011;5055;52.054;8.524;2023-02-28T09:43:46;0.33;;;0.33;;
10029;SDS011;5055;52.054;8.524;2023-02-28T09:46:21;0.50;;;0.50;;
10029;SDS011;5055;52.054;8.524;2023-02-28T09:49:00;0.50;;;0.50;;
10029;SDS011;5055;52.054;8.524;2023-02-28T09:51:34;0.40;;;0.40;;
10029;SDS011;5055;52.054;8.524;2023-02-28T09:54:12;0.40;;;0.40;;
10029;SDS011;5055;52.054;8.524;2023-02-28T09:56:47;0.40;;;0.40;;
10029;SDS011;5055;52.054;8.524;2023-02-28T09:59:29;0.40;;;0.40;;
10029;SDS011;5055;52.054;8.524;2023-02-28T10:02:10;0.30;;;0.30;;
10029;SDS011;5055;52.054;8.524;2023-02-28T10:04:47;0.40;;;0.40;;
10029;SDS011;5055;52.054;8.524;2023-02-28T10:07:23;0.40;;;0.40;;
10029;SDS011;5055;52.054;8.524;2023-02-28T10:10:13;0.50;;;0.50;;
10029;SDS011;5055;52.054;8.524;2023-02-28T10:12:48;0.40;;;0.40;;
10029;SDS011;5055;52.054;8.524;2023-02-28T10:15:21;0.30;;;0.30;;
10029;SDS011;5055;52.054;8.524;2023-02-28T10:17:54;0.40;;;0.40;;
10029;SDS011;5055;52.054;8.524;2023-02-28T10:20:35;0.30;;;0.30;;
10029;SDS011;5055;52.054;8.524;2023-02-28T10:23:09;0.30;;;0.30;;
10029;SDS011;5055;52.054;8.524;2023-02-28T10:25:45;0.40;;;0.40;;
10029;SDS011;5055;52.054;8.524;2023-02-28T10:28:19;0.33;;;0.33;;
10029;SDS011;5055;52.054;8.524;2023-02-28T10:30:48;0.30;;;0.30;;
10029;SDS011;5055;52.054;8.524;2023-02-28T10:33:20;0.30;;;0.30;;
10029;SDS011;5055;52.054;8.524;2023-02-28T10:35:51;0.30;;;0.30;;
10029;SDS011;5055;52.054;8.524;2023-02-28T10:38:21;0.30;;;0.30;;
10029;SDS011;5055;52.054;8.524;2023-02-28T10:40:51;0.20;;;0.20;;
10029;SDS011;5055;52.054;8.524;2023-02-28T10:43:32;0.30;;;0.30;;
10029;SDS011;5055;52.054;8.524;2023-02-28T10:46:02;0.40;;;0.40;;
10029;SDS011;5055;52.054;8.524;2023-02-28T10:48:33;0.33;;;0.33;;
10029;SDS011;5055;52.054;8.524;2023-02-28T10:51:04;0.30;;;0.30;;
10029;SDS011;5055;52.054;8.524;2023-02-28T10:53:37;0.30;;;0.30;;
10029;SDS011;5055;52.054;8.524;2023-02-28T10:56:27;0.30;;;0.30;;
10029;SDS011;5055;52.054;8.524;2023-02-28T10:58:59;0.47;;;0.47;;
10029;SDS011;5055;52.054;8.524;2023-02-28T11:01:36;0.37;;;0.37;;
10029;SDS011;5055;52.054;8.524;2023-02-28T11:04:16;0.40;;;0.40;;
10029;SDS011;5055;52.054;8.524;2023-02-28T11:06:48;0.30;;;0.30;;
10029;SDS011;5055;52.054;8.524;2023-02-28T11:09:26;0.30;;;0.30;;
10029;SDS011;5055;52.054;8.524;2023-02-28T11:11:58;0.50;;;0.50;;
10029;SDS011;5055;52.054;8.524;2023-02-28T11:14:29;0.47;;;0.47;;
10029;SDS011;5055;52.054;8.524;2023-02-28T11:17:03;0.40;;;0.40;;
10029;SDS011;5055;52.054;8.524;2023-02-28T11:19:44;0.40;;;0.40;;
10029;SDS011;5055;52.054;8.524;2023-02-28T11:22:17;0.40;;;0.40;;
10029;SDS011;5055;52.054;8.524;2023-02-28T11:24:50;0.30;;;0.30;;
10029;SDS011;5055;52.054;8.524;2023-02-28T11:27:24;0.40;;;0.40;;
10029;SDS011;5055;52.054;8.524;2023-02-28T11:30:29;0.50;;;0.50;;
10029;SDS011;5055;52.054;8.524;2023-02-28T11:35:49;0.33;;;0.33;;
10029;SDS011;5055;52.054;8.524;2023-02-28T11:38:19;0.40;;;0.40;;
10029;SDS011;5055;52.054;8.524;2023-02-28T11:40:49;0.30;;;0.30;;
10029;SDS011;5055;52.054;8.524;2023-02-28T11:43:37;0.40;;;0.40;;
10029;SDS011;5055;52.054;8.524;2023-02-28T11:46:20;0.33;;;0.33;;
10029;SDS011;5055;52.054;8.524;2023-02-28T11:48:57;0.50;;;0.50;;
10029;SDS011;5055;52.054;8.524;2023-02-28T11:51:34;0.40;;;0.40;;
10029;SDS011;5055;52.054;8.524;2023-02-28T11:54:21;0.40;;;0.40;;
10029;SDS011;5055;52.054;8.524;2023-02-28T11:56:57;0.30;;;0.30;;
10029;SDS011;5055;52.054;8.524;2023-02-28T11:59:34;0.30;;;0.30;;
10029;SDS011;5055;52.054;8.524;2023-02-28T12:02:22;0.40;;;0.40;;
10029;SDS011;5055;52.054;8.524;2023-02-28T12:05:01;0.40;;;0.40;;
10029;SDS011;5055;52.054;8.524;2023-02-28T12:07:44;0.60;;;0.60;;
10029;SDS011;5055;52.054;8.524;2023-02-28T12:10:21;0.40;;;0.40;;
10029;SDS011;5055;52.054;8.524;2023-02-28T12:12:55;0.50;;;0.50;;
10029;SDS011;5055;52.054;8.524;2023-02-28T12:18:51;0.40;;;0.40;;
10029;SDS011;5055;52.054;8.524;2023-02-28T12:21:31;0.30;;;0.30;;
10029;SDS011;5055;52.054;8.524;2023-02-28T12:24:22;0.40;;;0.40;;
10029;SDS011;5055;52.054;8.524;2023-02-28T12:27:10;0.37;;;0.37;;
10029;SDS011;5055;52.054;8.524;2023-02-28T12:29:43;0.40;;;0.40;;
10029;SDS011;5055;52.054;8.524;2023-02-28T12:32:18;0.30;;;0.30;;
10029;SDS011;5055;52.054;8.524;2023-02-28T12:34:52;0.30;;;0.30;;
10029;SDS011;5055;52.054;8.524;2023-02-28T12:37:27;0.40;;;0.40;;
10029;SDS011;5055;52.054;8.524;2023-02-28T12:40:00;0.40;;;0.40;;
10029;SDS011;5055;52.054;8.524;2023-02-28T12:42:33;0.30;;;0.30;;
10029;SDS011;5055;52.054;8.524;2023-02-28T12:45:08;0.30;;;0.30;;
10029;SDS011;5055;52.054;8.524;2023-02-28T12:47:40;0.30;;;0.30;;
10029;SDS011;5055;52.054;8.524;2023-02-28T12:50:13;0.30;;;0.30;;
10029;SDS011;5055;52.054;8.524;2023-02-28T12:52:48;0.30;;;0.30;;
10029;SDS011;5055;52.054;8.524;2023-02-28T12:55:25;0.20;;;0.20;;
10029;SDS011;5055;52.054;8.524;2023-02-28T12:58:01;0.40;;;0.40;;
10029;SDS011;5055;52.054;8.524;2023-02-28T13:00:42;0.30;;;0.30;;
10029;SDS011;5055;52.054;8.524;2023-02-28T13:03:39;0.30;;;0.30;;
10029;SDS011;5055;52.054;8.524;2023-02-28T13:06:24;0.20;;;0.20;;
10029;SDS011;5055;52.054;8.524;2023-02-28T13:09:09;0.30;;;0.30;;
10029;SDS011;5055;52.054;8.524;2023-02-28T13:11:41;0.30;;;0.30;;
10029;SDS011;5055;52.054;8.524;2023-02-28T13:14:22;0.33;;;0.33;;
10029;SDS011;5055;52.054;8.524;2023-02-28T13:16:55;0.30;;;0.30;;
10029;SDS011;5055;52.054;8.524;2023-02-28T13:19:28;0.20;;;0.20;;
10029;SDS011;5055;52.054;8.524;2023-02-28T13:22:00;0.30;;;0.30;;
10029;SDS011;5055;52.054;8.524;2023-02-28T13:24:37;0.20;;;0.20;;
10029;SDS011;5055;52.054;8.524;2023-02-28T13:33:21;0.30;;;0.30;;
10029;SDS011;5055;52.054;8.524;2023-02-28T13:36:09;0.20;;;0.20;;
10029;SDS011;5055;52.054;8.524;2023-02-28T13:38:50;0.20;;;0.20;;
10029;SDS011;5055;52.054;8.524;2023-02-28T13:44:14;0.20;;;0.20;;
10029;SDS011;5055;52.054;8.524;2023-02-28T13:49:52;0.20;;;0.20;;
10029;SDS011;5055;52.054;8.524;2023-02-28T13:52:22;0.20;;;0.20;;
10029;SDS011;5055;52.054;8.524;2023-02-28T13:55:13;0.20;;;0.20;;
10029;SDS011;5055;52.054;8.524;2023-02-28T13:58:03;0.20;;;0.20;;
10029;SDS011;5055;52.054;8.524;2023-02-28T14:00:45;0.30;;;0.30;;
10029;SDS011;5055;52.054;8.524;2023-02-28T14:06:34;0.20;;;0.20;;
10029;SDS011;5055;52.054;8.524;2023-02-28T14:09:06;0.20;;;0.20;;
10029;SDS011;5055;52.054;8.524;2023-02-28T14:11:47;0.20;;;0.20;;
10029;SDS011;5055;52.054;8.524;2023-02-28T14:17:17;0.30;;;0.30;;
10029;SDS011;5055;52.054;8.524;2023-02-28T14:19:47;0.30;;;0.30;;
10029;SDS011;5055;52.054;8.524;2023-02-28T14:22:21;0.23;;;0.23;;
10029;SDS011;5055;52.054;8.524;2023-02-28T14:25:16;0.20;;;0.20;;
10029;SDS011;5055;52.054;8.524;2023-02-28T14:27:56;0.20;;;0.20;;
10029;SDS011;5055;52.054;8.524;2023-02-28T14:33:35;0.20;;;0.20;;
10029;SDS011;5055;52.054;8.524;2023-02-28T14:36:13;0.20;;;0.20;;
10029;SDS011;5055;52.054;8.524;2023-02-28T14:38:46;0.20;;;0.20;;
10029;SDS011;5055;52.054;8.524;2023-02-28T14:41:22;0.20;;;0.20;;
10029;SDS011;5055;52.054;8.524;2023-02-28T14:44:01;0.13;;;0.13;;
10029;SDS011;5055;52.054;8.524;2023-02-28T14:46:34;0.20;;;0.20;;
10029;SDS011;5055;52.054;8.524;2023-02-28T14:49:12;0.20;;;0.20;;
10029;SDS011;5055;52.054;8.524;2023-02-28T14:51:47;0.20;;;0.20;;
10029;SDS011;5055;52.054;8.524;2023-02-28T14:54:20;0.20;;;0.20;;
10029;SDS011;5055;52.054;8.524;2023-02-28T14:56:52;0.20;;;0.20;;
10029;SDS011;5055;52.054;8.524;2023-02-28T14:59:26;0.20;;;0.20;;
10029;SDS011;5055;52.054;8.524;2023-02-28T15:02:16;0.10;;;0.10;;
10029;SDS011;5055;52.054;8.524;2023-02-28T15:04:53;0.20;;;0.20;;
10029;SDS011;5055;52.054;8.524;2023-02-28T15:07:22;0.20;;;0.20;;
10029;SDS011;5055;52.054;8.524;2023-02-28T15:10:13;0.20;;;0.20;;
10029;SDS011;5055;52.054;8.524;2023-02-28T15:12:47;0.20;;;0.20;;
10029;SDS011;5055;52.054;8.524;2023-02-28T15:15:21;0.20;;;0.20;;
10029;SDS011;5055;52.054;8.524;2023-02-28T15:18:06;0.20;;;0.20;;
10029;SDS011;5055;52.054;8.524;2023-02-28T15:20:39;0.20;;;0.20;;
10029;SDS011;5055;52.054;8.524;2023-02-28T15:23:10;0.20;;;0.20;;
10029;SDS011;5055;52.054;8.524;2023-02-28T15:25:39;0.20;;;0.20;;
10029;SDS011;5055;52.054;8.524;2023-02-28T15:28:11;0.20;;;0.20;;
10029;SDS011;5055;52.054;8.524;2023-02-28T15:30:57;0.30;;;0.30;;
10029;SDS011;5055;52.054;8.524;2023-02-28T15:33:28;0.20;;;0.20;;
10029;SDS011;5055;52.054;8.524;2023-02-28T15:36:05;0.20;;;0.20;;
10029;SDS011;5055;52.054;8.524;2023-02-28T15:38:35;0.30;;;0.30;;
10029;SDS011;5055;52.054;8.524;2023-02-28T15:41:04;0.30;;;0.30;;
10029;SDS011;5055;52.054;8.524;2023-02-28T15:43:35;0.20;;;0.20;;
10029;SDS011;5055;52.054;8.524;2023-02-28T15:46:05;0.40;;;0.40;;
10029;SDS011;5055;52.054;8.524;2023-02-28T15:48:36;0.30;;;0.30;;
10029;SDS011;5055;52.054;8.524;2023-02-28T15:51:14;0.40;;;0.40;;
10029;SDS011;5055;52.054;8.524;2023-02-28T15:53:47;0.30;;;0.30;;
10029;SDS011;5055;52.054;8.524;2023-02-28T15:56:22;0.40;;;0.40;;
10029;SDS011;5055;52.054;8.524;2023-02-28T15:58:53;0.40;;;0.40;;
10029;SDS011;5055;52.054;8.524;2023-02-28T16:01:25;0.40;;;0.40;;
10029;SDS011;5055;52.054;8.524;2023-02-28T16:03:57;0.37;;;0.37;;
10029;SDS011;5055;52.054;8.524;2023-02-28T16:06:32;0.30;;;0.30;;